sensor_id;sensor_type;location;lat;lon;timestamp;P1;durP1;ratioP1;P2;durP2;ratioP2
20014;SDS011;61787;42.022;23.078;2023-06-10T00:00:47;8.18;;;6.72;;
20014;SDS011;61787;42.022;23.078;2023-06-10T00:01:49;7.20;;;6.00;;
20014;SDS011;61787;42.022;23.078;2023-06-10T00:02:50;7.72;;;6.15;;
20014;SDS011;61787;42.022;23.078;2023-06-10T00:03:52;8.10;;;6.15;;
20014;SDS011;61787;42.022;23.078;2023-06-10T00:04:54;8.15;;;6.47;;
20014;SDS011;61787;42.022;23.078;2023-06-10T00:05:56;7.55;;;6.38;;
20014;SDS011;61787;42.022;23.078;2023-06-10T00:06:58;7.72;;;6.18;;
20014;SDS011;61787;42.022;23.078;2023-06-10T00:08:00;8.27;;;6.05;;
20014;SDS011;61787;42.022;23.078;2023-06-10T00:09:08;8.18;;;6.97;;
20014;SDS011;61787;42.022;23.078;2023-06-10T00:10:12;7.65;;;6.95;;
20014;SDS011;61787;42.022;23.078;2023-06-10T00:11:13;7.07;;;6.35;;
20014;SDS011;61787;42.022;23.078;2023-06-10T00:12:15;8.18;;;6.40;;
20014;SDS011;61787;42.022;23.078;2023-06-10T00:13:18;8.35;;;6.10;;
20014;SDS011;61787;42.022;23.078;2023-06-10T00:14:19;6.90;;;6.10;;
20014;SDS011;61787;42.022;23.078;2023-06-10T00:15:21;6.90;;;6.20;;
20014;SDS011;61787;42.022;23.078;2023-06-10T00:16:23;9.68;;;6.40;;
20014;SDS011;61787;42.022;23.078;2023-06-10T00:17:24;7.13;;;5.75;;
20014;SDS011;61787;42.022;23.078;2023-06-10T00:18:26;6.18;;;5.63;;
20014;SDS011;61787;42.022;23.078;2023-06-10T00:19:28;9.23;;;6.38;;
20014;SDS011;61787;42.022;23.078;2023-06-10T00:20:31;8.27;;;6.32;;
20014;SDS011;61787;42.022;23.078;2023-06-10T00:21:34;6.82;;;6.28;;
20014;SDS011;61787;42.022;23.078;2023-06-10T00:22:38;6.78;;;6.05;;
20014;SDS011;61787;42.022;23.078;2023-06-10T00:23:40;8.15;;;6.55;;
20014;SDS011;61787;42.022;23.078;2023-06-10T00:24:42;8.68;;;6.43;;
20014;SDS011;61787;42.022;23.078;2023-06-10T00:25:44;6.95;;;6.25;;
20014;SDS011;61787;42.022;23.078;2023-06-10T00:26:45;7.30;;;6.22;;
20014;SDS011;61787;42.022;23.078;2023-06-10T00:27:47;7.05;;;6.35;;
20014;SDS011;61787;42.022;23.078;2023-06-10T00:28:49;8.30;;;6.70;;
20014;SDS011;61787;42.022;23.078;2023-06-10T00:29:51;7.07;;;6.35;;
20014;SDS011;61787;42.022;23.078;2023-06-10T00:30:52;6.85;;;6.15;;
20014;SDS011;61787;42.022;23.078;2023-06-10T00:31:54;7.40;;;6.53;;
20014;SDS011;61787;42.022;23.078;2023-06-10T00:32:58;7.60;;;6.03;;
20014;SDS011;61787;42.022;23.078;2023-06-10T00:34:01;8.43;;;6.90;;
20014;SDS011;61787;42.022;23.078;2023-06-10T00:35:03;6.47;;;5.85;;
20014;SDS011;61787;42.022;23.078;2023-06-10T00:36:05;9.75;;;6.10;;
20014;SDS011;61787;42.022;23.078;2023-06-10T00:37:07;7.25;;;6.00;;
20014;SDS011;61787;42.022;23.078;2023-06-10T00:38:09;6.78;;;6.18;;
20014;SDS011;61787;42.022;23.078;2023-06-10T00:39:10;7.93;;;5.93;;
20014;SDS011;61787;42.022;23.078;2023-06-10T00:40:12;7.25;;;5.78;;
20014;SDS011;61787;42.022;23.078;2023-06-10T00:41:14;7.43;;;6.15;;
20014;SDS011;61787;42.022;23.078;2023-06-10T00:42:15;7.43;;;6.07;;
20014;SDS011;61787;42.022;23.078;2023-06-10T00:43:17;8.35;;;5.82;;
20014;SDS011;61787;42.022;23.078;2023-06-10T00:44:19;7.65;;;5.97;;
20014;SDS011;61787;42.022;23.078;2023-06-10T00:45:20;6.20;;;5.50;;
20014;SDS011;61787;42.022;23.078;2023-06-10T00:46:22;7.45;;;6.10;;
20014;SDS011;61787;42.022;23.078;2023-06-10T00:47:26;7.50;;;6.45;;
20014;SDS011;61787;42.022;23.078;2023-06-10T00:48:28;6.00;;;5.50;;
20014;SDS011;61787;42.022;23.078;2023-06-10T00:49:30;7.57;;;6.28;;
20014;SDS011;61787;42.022;23.078;2023-06-10T00:50:32;6.30;;;5.70;;
20014;SDS011;61787;42.022;23.078;2023-06-10T00:51:35;7.82;;;5.72;;
20014;SDS011;61787;42.022;23.078;2023-06-10T00:52:37;8.05;;;6.40;;
20014;SDS011;61787;42.022;23.078;2023-06-10T00:53:40;6.60;;;5.60;;
20014;SDS011;61787;42.022;23.078;2023-06-10T00:54:42;6.95;;;5.90;;
20014;SDS011;61787;42.022;23.078;2023-06-10T00:55:45;6.57;;;5.88;;
20014;SDS011;61787;42.022;23.078;2023-06-10T00:56:47;6.32;;;5.70;;
20014;SDS011;61787;42.022;23.078;2023-06-10T00:57:51;7.28;;;5.93;;
20014;SDS011;61787;42.022;23.078;2023-06-10T00:58:52;7.72;;;6.22;;
20014;SDS011;61787;42.022;23.078;2023-06-10T00:59:54;6.55;;;5.70;;
20014;SDS011;61787;42.022;23.078;2023-06-10T01:00:56;9.13;;;6.00;;
20014;SDS011;61787;42.022;23.078;2023-06-10T01:01:59;6.57;;;5.90;;
20014;SDS011;61787;42.022;23.078;2023-06-10T01:03:02;7.10;;;5.70;;
20014;SDS011;61787;42.022;23.078;2023-06-10T01:04:09;6.78;;;6.00;;
20014;SDS011;61787;42.022;23.078;2023-06-10T01:05:13;6.97;;;5.53;;
20014;SDS011;61787;42.022;23.078;2023-06-10T01:06:36;8.75;;;5.60;;
20014;SDS011;61787;42.022;23.078;2023-06-10T01:08:01;10.82;;;5.93;;
20014;SDS011;61787;42.022;23.078;2023-06-10T01:11:36;6.40;;;5.80;;
20014;SDS011;61787;42.022;23.078;2023-06-10T01:13:01;6.97;;;6.00;;
20014;SDS011;61787;42.022;23.078;2023-06-10T01:14:04;6.03;;;5.38;;
20014;SDS011;61787;42.022;23.078;2023-06-10T01:15:06;6.38;;;5.80;;
20014;SDS011;61787;42.022;23.078;2023-06-10T01:16:11;10.07;;;6.25;;
20014;SDS011;61787;42.022;23.078;2023-06-10T01:17:14;8.13;;;6.10;;
20014;SDS011;61787;42.022;23.078;2023-06-10T01:18:18;6.72;;;6.13;;
20014;SDS011;61787;42.022;23.078;2023-06-10T01:19:21;6.80;;;6.10;;
20014;SDS011;61787;42.022;23.078;2023-06-10T01:20:26;8.52;;;6.20;;
20014;SDS011;61787;42.022;23.078;2023-06-10T01:21:31;7.57;;;6.70;;
20014;SDS011;61787;42.022;23.078;2023-06-10T01:22:35;8.85;;;6.43;;
20014;SDS011;61787;42.022;23.078;2023-06-10T01:23:37;6.85;;;6.20;;
20014;SDS011;61787;42.022;23.078;2023-06-10T01:24:40;8.73;;;6.70;;
20014;SDS011;61787;42.022;23.078;2023-06-10T01:25:45;9.38;;;6.88;;
20014;SDS011;61787;42.022;23.078;2023-06-10T01:26:51;7.25;;;6.55;;
20014;SDS011;61787;42.022;23.078;2023-06-10T01:28:10;6.50;;;5.80;;
20014;SDS011;61787;42.022;23.078;2023-06-10T01:29:17;6.90;;;6.20;;
20014;SDS011;61787;42.022;23.078;2023-06-10T01:30:22;6.72;;;6.13;;
20014;SDS011;61787;42.022;23.078;2023-06-10T01:31:51;7.38;;;6.35;;
20014;SDS011;61787;42.022;23.078;2023-06-10T01:33:09;9.15;;;6.50;;
20014;SDS011;61787;42.022;23.078;2023-06-10T01:34:14;7.05;;;6.35;;
20014;SDS011;61787;42.022;23.078;2023-06-10T01:35:19;8.55;;;6.53;;
20014;SDS011;61787;42.022;23.078;2023-06-10T01:36:25;8.18;;;6.05;;
20014;SDS011;61787;42.022;23.078;2023-06-10T01:37:28;6.50;;;6.00;;
20014;SDS011;61787;42.022;23.078;2023-06-10T01:38:32;9.27;;;6.88;;
20014;SDS011;61787;42.022;23.078;2023-06-10T01:39:41;9.40;;;6.85;;
20014;SDS011;61787;42.022;23.078;2023-06-10T01:40:43;8.77;;;7.13;;
20014;SDS011;61787;42.022;23.078;2023-06-10T01:41:47;7.20;;;6.57;;
20014;SDS011;61787;42.022;23.078;2023-06-10T01:42:50;10.50;;;7.20;;
20014;SDS011;61787;42.022;23.078;2023-06-10T01:43:53;7.47;;;6.78;;
20014;SDS011;61787;42.022;23.078;2023-06-10T01:44:55;10.68;;;7.72;;
20014;SDS011;61787;42.022;23.078;2023-06-10T01:45:57;7.82;;;7.03;;
20014;SDS011;61787;42.022;23.078;2023-06-10T01:46:59;7.72;;;6.93;;
20014;SDS011;61787;42.022;23.078;2023-06-10T01:48:01;7.60;;;6.15;;
20014;SDS011;61787;42.022;23.078;2023-06-10T01:49:02;7.50;;;6.80;;
20014;SDS011;61787;42.022;23.078;2023-06-10T01:50:04;9.07;;;7.38;;
20014;SDS011;61787;42.022;23.078;2023-06-10T01:51:06;8.95;;;6.97;;
20014;SDS011;61787;42.022;23.078;2023-06-10T01:52:08;8.77;;;7.47;;
20014;SDS011;61787;42.022;23.078;2023-06-10T01:53:10;8.60;;;7.80;;
20014;SDS011;61787;42.022;23.078;2023-06-10T01:54:11;8.35;;;7.25;;
20014;SDS011;61787;42.022;23.078;2023-06-10T01:55:13;8.73;;;7.43;;
20014;SDS011;61787;42.022;23.078;2023-06-10T01:56:15;8.10;;;7.40;;
20014;SDS011;61787;42.022;23.078;2023-06-10T01:57:19;10.13;;;7.85;;
20014;SDS011;61787;42.022;23.078;2023-06-10T01:58:20;13.27;;;8.20;;
20014;SDS011;61787;42.022;23.078;2023-06-10T01:59:22;8.48;;;7.65;;
20014;SDS011;61787;42.022;23.078;2023-06-10T02:00:24;8.27;;;7.25;;
20014;SDS011;61787;42.022;23.078;2023-06-10T02:01:25;9.23;;;7.50;;
20014;SDS011;61787;42.022;23.078;2023-06-10T02:02:27;8.27;;;7.47;;
20014;SDS011;61787;42.022;23.078;2023-06-10T02:03:29;8.93;;;8.02;;
20014;SDS011;61787;42.022;23.078;2023-06-10T02:04:31;8.20;;;7.40;;
20014;SDS011;61787;42.022;23.078;2023-06-10T02:05:33;10.15;;;7.70;;
20014;SDS011;61787;42.022;23.078;2023-06-10T02:06:34;9.48;;;7.65;;
20014;SDS011;61787;42.022;23.078;2023-06-10T02:07:36;8.82;;;7.28;;
20014;SDS011;61787;42.022;23.078;2023-06-10T02:08:39;8.82;;;7.82;;
20014;SDS011;61787;42.022;23.078;2023-06-10T02:09:41;8.00;;;7.30;;
20014;SDS011;61787;42.022;23.078;2023-06-10T02:10:42;7.78;;;7.07;;
20014;SDS011;61787;42.022;23.078;2023-06-10T02:11:44;8.10;;;7.30;;
20014;SDS011;61787;42.022;23.078;2023-06-10T02:12:46;8.32;;;7.20;;
20014;SDS011;61787;42.022;23.078;2023-06-10T02:13:47;9.40;;;7.65;;
20014;SDS011;61787;42.022;23.078;2023-06-10T02:14:49;7.68;;;6.97;;
20014;SDS011;61787;42.022;23.078;2023-06-10T02:15:51;8.65;;;6.75;;
20014;SDS011;61787;42.022;23.078;2023-06-10T02:16:55;7.60;;;6.80;;
20014;SDS011;61787;42.022;23.078;2023-06-10T02:17:59;7.97;;;6.53;;
20014;SDS011;61787;42.022;23.078;2023-06-10T02:19:01;7.68;;;6.97;;
20014;SDS011;61787;42.022;23.078;2023-06-10T02:20:07;7.50;;;6.90;;
20014;SDS011;61787;42.022;23.078;2023-06-10T02:21:12;8.77;;;7.50;;
20014;SDS011;61787;42.022;23.078;2023-06-10T02:22:13;8.05;;;7.05;;
20014;SDS011;61787;42.022;23.078;2023-06-10T02:23:15;8.40;;;7.07;;
20014;SDS011;61787;42.022;23.078;2023-06-10T02:24:17;8.68;;;7.18;;
20014;SDS011;61787;42.022;23.078;2023-06-10T02:25:19;7.55;;;6.63;;
20014;SDS011;61787;42.022;23.078;2023-06-10T02:26:20;8.55;;;7.50;;
20014;SDS011;61787;42.022;23.078;2023-06-10T02:27:22;7.43;;;6.72;;
20014;SDS011;61787;42.022;23.078;2023-06-10T02:28:24;8.35;;;6.95;;
20014;SDS011;61787;42.022;23.078;2023-06-10T02:29:26;7.72;;;6.90;;
20014;SDS011;61787;42.022;23.078;2023-06-10T02:30:27;8.30;;;7.43;;
20014;SDS011;61787;42.022;23.078;2023-06-10T02:31:29;11.63;;;7.93;;
20014;SDS011;61787;42.022;23.078;2023-06-10T02:32:31;8.90;;;7.93;;
20014;SDS011;61787;42.022;23.078;2023-06-10T02:33:32;8.35;;;7.40;;
20014;SDS011;61787;42.022;23.078;2023-06-10T02:34:35;11.23;;;7.53;;
20014;SDS011;61787;42.022;23.078;2023-06-10T02:35:38;9.10;;;8.13;;
20014;SDS011;61787;42.022;23.078;2023-06-10T02:36:40;9.18;;;8.10;;
20014;SDS011;61787;42.022;23.078;2023-06-10T02:37:41;8.98;;;7.53;;
20014;SDS011;61787;42.022;23.078;2023-06-10T02:38:43;9.48;;;7.70;;
20014;SDS011;61787;42.022;23.078;2023-06-10T02:39:45;9.63;;;8.07;;
20014;SDS011;61787;42.022;23.078;2023-06-10T02:40:47;8.85;;;7.43;;
20014;SDS011;61787;42.022;23.078;2023-06-10T02:41:48;9.93;;;8.18;;
20014;SDS011;61787;42.022;23.078;2023-06-10T02:42:50;10.27;;;8.82;;
20014;SDS011;61787;42.022;23.078;2023-06-10T02:43:51;9.05;;;8.15;;
20014;SDS011;61787;42.022;23.078;2023-06-10T02:44:53;9.15;;;7.70;;
20014;SDS011;61787;42.022;23.078;2023-06-10T02:45:55;9.00;;;7.75;;
20014;SDS011;61787;42.022;23.078;2023-06-10T02:46:56;8.52;;;7.72;;
20014;SDS011;61787;42.022;23.078;2023-06-10T02:47:58;8.93;;;8.02;;
20014;SDS011;61787;42.022;23.078;2023-06-10T02:49:00;8.85;;;8.00;;
20014;SDS011;61787;42.022;23.078;2023-06-10T02:50:02;9.95;;;8.18;;
20014;SDS011;61787;42.022;23.078;2023-06-10T02:51:05;9.07;;;8.18;;
20014;SDS011;61787;42.022;23.078;2023-06-10T02:52:06;9.15;;;8.20;;
20014;SDS011;61787;42.022;23.078;2023-06-10T02:53:09;8.35;;;7.55;;
20014;SDS011;61787;42.022;23.078;2023-06-10T02:54:11;10.02;;;7.88;;
20014;SDS011;61787;42.022;23.078;2023-06-10T02:55:12;9.05;;;7.60;;
20014;SDS011;61787;42.022;23.078;2023-06-10T02:56:16;12.07;;;7.72;;
20014;SDS011;61787;42.022;23.078;2023-06-10T02:57:18;9.85;;;8.13;;
20014;SDS011;61787;42.022;23.078;2023-06-10T02:58:19;9.40;;;8.50;;
20014;SDS011;61787;42.022;23.078;2023-06-10T02:59:22;11.25;;;8.90;;
20014;SDS011;61787;42.022;23.078;2023-06-10T03:00:23;10.93;;;8.15;;
20014;SDS011;61787;42.022;23.078;2023-06-10T03:01:25;10.27;;;8.23;;
20014;SDS011;61787;42.022;23.078;2023-06-10T03:02:27;9.25;;;8.35;;
20014;SDS011;61787;42.022;23.078;2023-06-10T03:03:29;11.57;;;9.35;;
20014;SDS011;61787;42.022;23.078;2023-06-10T03:04:31;10.85;;;9.15;;
20014;SDS011;61787;42.022;23.078;2023-06-10T03:05:33;9.90;;;8.80;;
20014;SDS011;61787;42.022;23.078;2023-06-10T03:06:35;10.57;;;8.55;;
20014;SDS011;61787;42.022;23.078;2023-06-10T03:07:37;12.80;;;9.00;;
20014;SDS011;61787;42.022;23.078;2023-06-10T03:08:39;9.87;;;8.87;;
20014;SDS011;61787;42.022;23.078;2023-06-10T03:09:41;9.32;;;8.43;;
20014;SDS011;61787;42.022;23.078;2023-06-10T03:10:46;9.13;;;7.87;;
20014;SDS011;61787;42.022;23.078;2023-06-10T03:11:47;10.10;;;8.27;;
20014;SDS011;61787;42.022;23.078;2023-06-10T03:12:49;10.50;;;8.35;;
20014;SDS011;61787;42.022;23.078;2023-06-10T03:13:50;9.90;;;7.78;;
20014;SDS011;61787;42.022;23.078;2023-06-10T03:14:52;12.13;;;7.30;;
20014;SDS011;61787;42.022;23.078;2023-06-10T03:15:53;9.55;;;7.75;;
20014;SDS011;61787;42.022;23.078;2023-06-10T03:16:55;8.47;;;7.37;;
20014;SDS011;61787;42.022;23.078;2023-06-10T03:17:57;7.70;;;6.63;;
20014;SDS011;61787;42.022;23.078;2023-06-10T03:18:59;8.60;;;6.65;;
20014;SDS011;61787;42.022;23.078;2023-06-10T03:20:00;8.52;;;7.72;;
20014;SDS011;61787;42.022;23.078;2023-06-10T03:21:03;7.80;;;7.03;;
20014;SDS011;61787;42.022;23.078;2023-06-10T03:22:11;9.98;;;7.47;;
20014;SDS011;61787;42.022;23.078;2023-06-10T03:23:14;11.00;;;7.40;;
20014;SDS011;61787;42.022;23.078;2023-06-10T03:24:16;8.20;;;7.28;;
20014;SDS011;61787;42.022;23.078;2023-06-10T03:25:18;8.63;;;7.40;;
20014;SDS011;61787;42.022;23.078;2023-06-10T03:26:22;11.45;;;6.85;;
20014;SDS011;61787;42.022;23.078;2023-06-10T03:27:23;8.55;;;7.40;;
20014;SDS011;61787;42.022;23.078;2023-06-10T03:28:25;7.28;;;6.57;;
20014;SDS011;61787;42.022;23.078;2023-06-10T03:29:27;11.15;;;7.22;;
20014;SDS011;61787;42.022;23.078;2023-06-10T03:30:28;9.77;;;6.65;;
20014;SDS011;61787;42.022;23.078;2023-06-10T03:31:30;8.35;;;7.07;;
20014;SDS011;61787;42.022;23.078;2023-06-10T03:32:32;10.07;;;6.45;;
20014;SDS011;61787;42.022;23.078;2023-06-10T03:33:34;7.15;;;6.45;;
20014;SDS011;61787;42.022;23.078;2023-06-10T03:34:35;7.88;;;7.03;;
20014;SDS011;61787;42.022;23.078;2023-06-10T03:35:37;7.88;;;7.07;;
20014;SDS011;61787;42.022;23.078;2023-06-10T03:36:38;7.82;;;6.93;;
20014;SDS011;61787;42.022;23.078;2023-06-10T03:37:44;10.32;;;7.38;;
20014;SDS011;61787;42.022;23.078;2023-06-10T03:38:45;7.15;;;6.45;;
20014;SDS011;61787;42.022;23.078;2023-06-10T03:39:47;7.75;;;6.95;;
20014;SDS011;61787;42.022;23.078;2023-06-10T03:40:48;8.38;;;6.90;;
20014;SDS011;61787;42.022;23.078;2023-06-10T03:41:50;7.50;;;6.68;;
20014;SDS011;61787;42.022;23.078;2023-06-10T03:42:52;7.43;;;6.72;;
20014;SDS011;61787;42.022;23.078;2023-06-10T03:43:54;8.63;;;6.82;;
20014;SDS011;61787;42.022;23.078;2023-06-10T03:44:55;8.88;;;6.75;;
20014;SDS011;61787;42.022;23.078;2023-06-10T03:45:57;6.85;;;6.10;;
20014;SDS011;61787;42.022;23.078;2023-06-10T03:46:59;6.22;;;5.63;;
20014;SDS011;61787;42.022;23.078;2023-06-10T03:48:01;7.63;;;6.30;;
20014;SDS011;61787;42.022;23.078;2023-06-10T03:49:04;8.07;;;6.15;;
20014;SDS011;61787;42.022;23.078;2023-06-10T03:50:06;8.32;;;6.35;;
20014;SDS011;61787;42.022;23.078;2023-06-10T03:51:11;6.70;;;6.03;;
20014;SDS011;61787;42.022;23.078;2023-06-10T03:52:13;8.13;;;6.70;;
20014;SDS011;61787;42.022;23.078;2023-06-10T03:53:14;6.65;;;6.05;;
20014;SDS011;61787;42.022;23.078;2023-06-10T03:54:16;6.60;;;5.90;;
20014;SDS011;61787;42.022;23.078;2023-06-10T03:55:18;7.15;;;6.28;;
20014;SDS011;61787;42.022;23.078;2023-06-10T03:56:22;6.57;;;5.88;;
20014;SDS011;61787;42.022;23.078;2023-06-10T03:57:24;9.57;;;7.20;;
20014;SDS011;61787;42.022;23.078;2023-06-10T03:58:26;11.68;;;7.75;;
20014;SDS011;61787;42.022;23.078;2023-06-10T03:59:28;9.48;;;8.15;;
20014;SDS011;61787;42.022;23.078;2023-06-10T04:00:30;11.20;;;7.43;;
20014;SDS011;61787;42.022;23.078;2023-06-10T04:01:32;9.55;;;8.18;;
20014;SDS011;61787;42.022;23.078;2023-06-10T04:02:34;7.68;;;6.97;;
20014;SDS011;61787;42.022;23.078;2023-06-10T04:03:36;9.88;;;7.25;;
20014;SDS011;61787;42.022;23.078;2023-06-10T04:04:38;8.60;;;6.72;;
20014;SDS011;61787;42.022;23.078;2023-06-10T04:05:39;7.28;;;6.53;;
20014;SDS011;61787;42.022;23.078;2023-06-10T04:06:42;9.55;;;6.75;;
20014;SDS011;61787;42.022;23.078;2023-06-10T04:07:45;7.78;;;6.63;;
20014;SDS011;61787;42.022;23.078;2023-06-10T04:08:47;8.23;;;6.88;;
20014;SDS011;61787;42.022;23.078;2023-06-10T04:09:48;6.93;;;6.22;;
20014;SDS011;61787;42.022;23.078;2023-06-10T04:10:51;11.52;;;7.35;;
20014;SDS011;61787;42.022;23.078;2023-06-10T04:11:53;8.73;;;6.80;;
20014;SDS011;61787;42.022;23.078;2023-06-10T04:12:55;7.38;;;6.68;;
20014;SDS011;61787;42.022;23.078;2023-06-10T04:13:56;7.40;;;6.68;;
20014;SDS011;61787;42.022;23.078;2023-06-10T04:14:58;8.50;;;6.63;;
20014;SDS011;61787;42.022;23.078;2023-06-10T04:16:00;7.35;;;6.65;;
20014;SDS011;61787;42.022;23.078;2023-06-10T04:17:04;11.95;;;6.95;;
20014;SDS011;61787;42.022;23.078;2023-06-10T04:18:10;9.40;;;6.07;;
20014;SDS011;61787;42.022;23.078;2023-06-10T04:19:11;6.70;;;6.05;;
20014;SDS011;61787;42.022;23.078;2023-06-10T04:20:13;7.03;;;6.32;;
20014;SDS011;61787;42.022;23.078;2023-06-10T04:21:15;6.32;;;5.68;;
20014;SDS011;61787;42.022;23.078;2023-06-10T04:22:17;8.63;;;6.35;;
20014;SDS011;61787;42.022;23.078;2023-06-10T04:23:20;7.07;;;6.38;;
20014;SDS011;61787;42.022;23.078;2023-06-10T04:24:21;8.48;;;6.18;;
20014;SDS011;61787;42.022;23.078;2023-06-10T04:25:23;9.82;;;5.97;;
20014;SDS011;61787;42.022;23.078;2023-06-10T04:26:26;9.38;;;6.00;;
20014;SDS011;61787;42.022;23.078;2023-06-10T04:27:28;10.77;;;6.22;;
20014;SDS011;61787;42.022;23.078;2023-06-10T04:28:30;7.45;;;6.35;;
20014;SDS011;61787;42.022;23.078;2023-06-10T04:29:32;10.82;;;6.70;;
20014;SDS011;61787;42.022;23.078;2023-06-10T04:30:33;9.82;;;6.47;;
20014;SDS011;61787;42.022;23.078;2023-06-10T04:31:35;7.30;;;6.60;;
20014;SDS011;61787;42.022;23.078;2023-06-10T04:32:37;9.45;;;6.88;;
20014;SDS011;61787;42.022;23.078;2023-06-10T04:33:38;8.90;;;6.80;;
20014;SDS011;61787;42.022;23.078;2023-06-10T04:34:40;6.75;;;6.15;;
20014;SDS011;61787;42.022;23.078;2023-06-10T04:35:42;7.15;;;6.30;;
20014;SDS011;61787;42.022;23.078;2023-06-10T04:36:43;13.15;;;6.40;;
20014;SDS011;61787;42.022;23.078;2023-06-10T04:37:45;10.25;;;7.10;;
20014;SDS011;61787;42.022;23.078;2023-06-10T04:38:47;8.13;;;6.75;;
20014;SDS011;61787;42.022;23.078;2023-06-10T04:39:48;7.32;;;6.63;;
20014;SDS011;61787;42.022;23.078;2023-06-10T04:40:50;7.72;;;6.93;;
20014;SDS011;61787;42.022;23.078;2023-06-10T04:41:52;9.23;;;7.53;;
20014;SDS011;61787;42.022;23.078;2023-06-10T04:42:54;7.78;;;7.00;;
20014;SDS011;61787;42.022;23.078;2023-06-10T04:43:55;8.38;;;7.35;;
20014;SDS011;61787;42.022;23.078;2023-06-10T04:44:57;10.40;;;6.97;;
20014;SDS011;61787;42.022;23.078;2023-06-10T04:45:59;9.80;;;7.05;;
20014;SDS011;61787;42.022;23.078;2023-06-10T04:47:01;10.77;;;6.95;;
20014;SDS011;61787;42.022;23.078;2023-06-10T04:48:03;8.32;;;7.18;;
20014;SDS011;61787;42.022;23.078;2023-06-10T04:49:05;9.10;;;6.85;;
20014;SDS011;61787;42.022;23.078;2023-06-10T04:50:07;7.22;;;6.43;;
20014;SDS011;61787;42.022;23.078;2023-06-10T04:51:09;11.77;;;6.78;;
20014;SDS011;61787;42.022;23.078;2023-06-10T04:52:11;7.93;;;6.97;;
20014;SDS011;61787;42.022;23.078;2023-06-10T04:53:12;9.57;;;6.68;;
20014;SDS011;61787;42.022;23.078;2023-06-10T04:54:14;9.35;;;6.70;;
20014;SDS011;61787;42.022;23.078;2023-06-10T04:55:17;7.70;;;6.28;;
20014;SDS011;61787;42.022;23.078;2023-06-10T04:56:18;10.07;;;6.75;;
20014;SDS011;61787;42.022;23.078;2023-06-10T04:57:21;8.27;;;6.30;;
20014;SDS011;61787;42.022;23.078;2023-06-10T04:58:23;7.20;;;6.50;;
20014;SDS011;61787;42.022;23.078;2023-06-10T04:59:27;10.50;;;7.05;;
20014;SDS011;61787;42.022;23.078;2023-06-10T05:00:41;8.90;;;6.60;;
20014;SDS011;61787;42.022;23.078;2023-06-10T05:01:47;12.02;;;6.28;;
20014;SDS011;61787;42.022;23.078;2023-06-10T05:02:52;7.72;;;6.93;;
20014;SDS011;61787;42.022;23.078;2023-06-10T05:03:54;8.77;;;6.65;;
20014;SDS011;61787;42.022;23.078;2023-06-10T05:04:56;7.28;;;6.57;;
20014;SDS011;61787;42.022;23.078;2023-06-10T05:05:59;7.30;;;6.60;;
20014;SDS011;61787;42.022;23.078;2023-06-10T05:07:01;9.50;;;6.85;;
20014;SDS011;61787;42.022;23.078;2023-06-10T05:08:02;7.28;;;6.35;;
20014;SDS011;61787;42.022;23.078;2023-06-10T05:09:09;7.20;;;6.43;;
20014;SDS011;61787;42.022;23.078;2023-06-10T05:10:11;7.50;;;6.28;;
20014;SDS011;61787;42.022;23.078;2023-06-10T05:11:15;7.47;;;6.20;;
20014;SDS011;61787;42.022;23.078;2023-06-10T05:12:17;8.95;;;6.90;;
20014;SDS011;61787;42.022;23.078;2023-06-10T05:13:19;8.85;;;6.32;;
20014;SDS011;61787;42.022;23.078;2023-06-10T05:14:20;8.23;;;6.65;;
20014;SDS011;61787;42.022;23.078;2023-06-10T05:15:22;6.82;;;6.15;;
20014;SDS011;61787;42.022;23.078;2023-06-10T05:16:24;7.15;;;6.18;;
20014;SDS011;61787;42.022;23.078;2023-06-10T05:17:26;6.60;;;5.90;;
20014;SDS011;61787;42.022;23.078;2023-06-10T05:18:27;7.43;;;6.22;;
20014;SDS011;61787;42.022;23.078;2023-06-10T05:19:29;7.57;;;6.25;;
20014;SDS011;61787;42.022;23.078;2023-06-10T05:20:31;7.15;;;6.45;;
20014;SDS011;61787;42.022;23.078;2023-06-10T05:21:32;6.90;;;6.30;;
20014;SDS011;61787;42.022;23.078;2023-06-10T05:22:34;7.22;;;6.25;;
20014;SDS011;61787;42.022;23.078;2023-06-10T05:23:36;6.65;;;6.05;;
20014;SDS011;61787;42.022;23.078;2023-06-10T05:24:38;7.25;;;6.53;;
20014;SDS011;61787;42.022;23.078;2023-06-10T05:25:40;7.18;;;6.15;;
20014;SDS011;61787;42.022;23.078;2023-06-10T05:26:42;7.07;;;6.47;;
20014;SDS011;61787;42.022;23.078;2023-06-10T05:27:44;9.93;;;6.43;;
20014;SDS011;61787;42.022;23.078;2023-06-10T05:28:46;10.73;;;6.70;;
20014;SDS011;61787;42.022;23.078;2023-06-10T05:29:48;10.02;;;6.65;;
20014;SDS011;61787;42.022;23.078;2023-06-10T05:30:49;8.15;;;7.10;;
20014;SDS011;61787;42.022;23.078;2023-06-10T05:31:51;8.68;;;6.43;;
20014;SDS011;61787;42.022;23.078;2023-06-10T05:32:53;8.30;;;6.40;;
20014;SDS011;61787;42.022;23.078;2023-06-10T05:33:54;8.43;;;6.90;;
20014;SDS011;61787;42.022;23.078;2023-06-10T05:34:56;7.68;;;6.20;;
20014;SDS011;61787;42.022;23.078;2023-06-10T05:35:58;9.15;;;5.90;;
20014;SDS011;61787;42.022;23.078;2023-06-10T05:36:59;7.03;;;6.30;;
20014;SDS011;61787;42.022;23.078;2023-06-10T05:38:01;8.13;;;5.95;;
20014;SDS011;61787;42.022;23.078;2023-06-10T05:39:04;9.85;;;6.25;;
20014;SDS011;61787;42.022;23.078;2023-06-10T05:40:06;8.38;;;6.15;;
20014;SDS011;61787;42.022;23.078;2023-06-10T05:41:08;9.35;;;5.78;;
20014;SDS011;61787;42.022;23.078;2023-06-10T05:42:10;8.20;;;6.43;;
20014;SDS011;61787;42.022;23.078;2023-06-10T05:43:13;8.00;;;6.00;;
20014;SDS011;61787;42.022;23.078;2023-06-10T05:44:15;5.75;;;5.20;;
20014;SDS011;61787;42.022;23.078;2023-06-10T05:45:17;8.85;;;5.57;;
20014;SDS011;61787;42.022;23.078;2023-06-10T05:46:19;8.38;;;5.90;;
20014;SDS011;61787;42.022;23.078;2023-06-10T05:47:21;7.50;;;5.55;;
20014;SDS011;61787;42.022;23.078;2023-06-10T05:48:23;11.05;;;5.97;;
20014;SDS011;61787;42.022;23.078;2023-06-10T05:49:24;8.10;;;5.60;;
20014;SDS011;61787;42.022;23.078;2023-06-10T05:50:26;5.95;;;5.05;;
20014;SDS011;61787;42.022;23.078;2023-06-10T05:51:28;7.50;;;6.03;;
20014;SDS011;61787;42.022;23.078;2023-06-10T05:52:29;5.68;;;5.00;;
20014;SDS011;61787;42.022;23.078;2023-06-10T05:53:31;7.80;;;5.25;;
20014;SDS011;61787;42.022;23.078;2023-06-10T05:54:33;6.38;;;5.28;;
20014;SDS011;61787;42.022;23.078;2023-06-10T05:55:35;6.82;;;5.47;;
20014;SDS011;61787;42.022;23.078;2023-06-10T05:56:37;5.43;;;4.93;;
20014;SDS011;61787;42.022;23.078;2023-06-10T05:57:40;5.93;;;4.80;;
20014;SDS011;61787;42.022;23.078;2023-06-10T05:58:43;5.32;;;4.82;;
20014;SDS011;61787;42.022;23.078;2023-06-10T05:59:45;6.85;;;5.15;;
20014;SDS011;61787;42.022;23.078;2023-06-10T06:00:46;6.70;;;5.53;;
20014;SDS011;61787;42.022;23.078;2023-06-10T06:01:48;5.82;;;5.05;;
20014;SDS011;61787;42.022;23.078;2023-06-10T06:02:51;5.68;;;5.05;;
20014;SDS011;61787;42.022;23.078;2023-06-10T06:03:54;6.82;;;5.13;;
20014;SDS011;61787;42.022;23.078;2023-06-10T06:04:55;6.30;;;5.70;;
20014;SDS011;61787;42.022;23.078;2023-06-10T06:05:57;7.22;;;5.50;;
20014;SDS011;61787;42.022;23.078;2023-06-10T06:06:59;6.00;;;4.82;;
20014;SDS011;61787;42.022;23.078;2023-06-10T06:08:04;6.57;;;5.88;;
20014;SDS011;61787;42.022;23.078;2023-06-10T06:09:06;5.70;;;5.20;;
20014;SDS011;61787;42.022;23.078;2023-06-10T06:10:08;6.80;;;5.90;;
20014;SDS011;61787;42.022;23.078;2023-06-10T06:11:10;7.07;;;5.75;;
20014;SDS011;61787;42.022;23.078;2023-06-10T06:12:11;7.93;;;6.03;;
20014;SDS011;61787;42.022;23.078;2023-06-10T06:13:13;6.15;;;5.00;;
20014;SDS011;61787;42.022;23.078;2023-06-10T06:14:15;5.50;;;5.00;;